M I D A S
Marine Information and Data Acquisition System
Tripno 775 of the Zeeleeuw from 2004-03-18 07:12:37 to 2004-03-18 11:41:07
Back to CruiseResearch ActivitiesStationsMapUnderway DataData graphs

EquipmentUnitsComment
TimeDGPSUTC
LatitudeDGPSDM.mWGS84
LongitudeDGPSDM.mWGS84
HeadingGyrodeg 
SOGDGPSknotsSpeed over ground
COGDGPSdegCourse over ground
DepthEcho soundermeters200 kHz
Missing or incorrect values are displayed as -999
Navigation data collected by the RV Zeeleeuw from 2004-03-18 07:12:37 to 2004-03-18 11:41:07
                                                                                    Next 1000 lines
Time Latitude Longitude Heading SOG COG Depth
2004-03-18 07:12:45 51°13.623 2°55.984 120.4 4.2 296 -999
2004-03-18 07:12:51 51°13.626 2°55.974 121.2 4.2 296 -999
2004-03-18 07:12:56 51°13.629 2°55.966 122.2 4.4 298 -999
2004-03-18 07:13:01 51°13.632 2°55.957 122.9 4.4 299 -999
2004-03-18 07:13:05 51°13.635 2°55.95 123.2 4.5 300 -999
2004-03-18 07:13:11 51°13.638 2°55.94 123.2 4.5 300 -999
2004-03-18 07:13:16 51°13.641 2°55.931 122.9 4.5 300 -999
2004-03-18 07:13:21 51°13.645 2°55.922 122.6 4.5 300 -999
2004-03-18 07:13:26 51°13.648 2°55.914 122.1 4.5 299 -999
2004-03-18 07:13:31 51°13.651 2°55.905 121.4 4.4 299 -999
2004-03-18 07:13:36 51°13.653 2°55.896 120.7 4.4 298 -999
2004-03-18 07:13:41 51°13.656 2°55.888 120.2 4.4 298 -999
2004-03-18 07:13:45 51°13.658 2°55.881 119.5 4.3 297 -999
2004-03-18 07:13:51 51°13.662 2°55.871 118.8 4.4 296 -999
2004-03-18 07:13:56 51°13.664 2°55.862 118 4.4 296 -999
2004-03-18 07:14:01 51°13.667 2°55.853 117.5 4.4 295 -999
2004-03-18 07:14:05 51°13.669 2°55.846 116.9 4.4 295 -999
2004-03-18 07:14:11 51°13.672 2°55.835 116.4 4.4 295 -999
2004-03-18 07:14:16 51°13.674 2°55.826 115.9 4.4 294 -999
2004-03-18 07:14:21 51°13.677 2°55.818 115.4 4.3 294 -999
2004-03-18 07:14:25 51°13.678 2°55.811 115 4.3 294 -999
2004-03-18 07:14:31 51°13.681 2°55.8 114.3 4.2 292 -999
2004-03-18 07:14:36 51°13.683 2°55.791 113.2 4.2 292 -999
2004-03-18 07:14:41 51°13.685 2°55.783 112.4 4.2 291 -999
2004-03-18 07:14:45 51°13.687 2°55.776 111.1 4.2 291 -999
2004-03-18 07:14:51 51°13.689 2°55.766 109.8 4.1 289 -999
2004-03-18 07:14:56 51°13.691 2°55.758 108.6 3.9 288 -999
2004-03-18 07:15:01 51°13.692 2°55.751 107.4 3.5 288 -999
2004-03-18 07:15:05 51°13.693 2°55.746 105.4 3.3 287 -999
2004-03-18 07:15:11 51°13.694 2°55.741 102.8 2.1 288 13.2
2004-03-18 07:15:15 51°13.694 2°55.74 100.3 1.8 290 13.2
2004-03-18 07:15:20 51°13.695 2°55.739 97.6 1.8 290 12.9
2004-03-18 07:15:25 51°13.695 2°55.739 92.9 0.4 354 12.9
2004-03-18 07:15:31 51°13.696 2°55.741 87.5 0.7 53 12.8
2004-03-18 07:15:36 51°13.697 2°55.743 81.2 1.3 58 12.9
2004-03-18 07:15:40 51°13.698 2°55.746 74.2 1.6 59 13.2
2004-03-18 07:15:45 51°13.699 2°55.749 67 1.6 59 12.9
2004-03-18 07:15:51 51°13.701 2°55.752 61.6 1.5 47 -999
2004-03-18 07:15:56 51°13.702 2°55.752 57.1 0.9 41 -999
2004-03-18 07:16:00 51°13.702 2°55.752 52.2 0.5 18 12.8
2004-03-18 07:16:05 51°13.702 2°55.752 48.9 0.3 260 -999
2004-03-18 07:16:09 51°13.702 2°55.751 46.6 0.6 241 12.8
2004-03-18 07:16:15 51°13.701 2°55.749 43.8 1.1 229 12.8
2004-03-18 07:16:20 51°13.699 2°55.746 41.7 1.4 225 12.8
2004-03-18 07:16:24 51°13.698 2°55.744 38.6 1.7 221 -999
2004-03-18 07:16:31 51°13.695 2°55.741 36.1 1.9 219 -999
2004-03-18 07:16:36 51°13.693 2°55.739 33.8 1.6 218 -999
2004-03-18 07:16:41 51°13.692 2°55.737 31.9 1.1 222 -999
2004-03-18 07:16:45 51°13.692 2°55.737 28.3 0.2 302 -999
2004-03-18 07:16:51 51°13.694 2°55.737 22.5 1 2 -999
2004-03-18 07:16:56 51°13.696 2°55.737 15.2 1.5 2 -999
2004-03-18 07:17:01 51°13.699 2°55.737 5 2 357 -999
2004-03-18 07:17:05 51°13.702 2°55.736 356.2 2.7 348 -999
2004-03-18 07:17:11 51°13.706 2°55.734 349.8 2.8 346 -999
2004-03-18 07:17:16 51°13.71 2°55.731 342.7 2.7 337 -999
2004-03-18 07:17:20 51°13.713 2°55.729 339.7 2.7 335 11.5
2004-03-18 07:17:25 51°13.716 2°55.726 337.4 2.8 332 11.1
2004-03-18 07:17:29 51°13.719 2°55.723 335.9 3.3 331 11
2004-03-18 07:17:35 51°13.724 2°55.718 335.3 3.4 331 10.5
2004-03-18 07:17:40 51°13.729 2°55.714 335.7 4 331 10.1
2004-03-18 07:17:45 51°13.735 2°55.709 336.5 4.3 331 9.9
2004-03-18 07:17:49 51°13.739 2°55.705 337.1 4.5 332 9.8
2004-03-18 07:17:55 51°13.747 2°55.7 337.5 5 332 9.9
2004-03-18 07:18:00 51°13.753 2°55.694 337.5 5 332 9.8
2004-03-18 07:18:05 51°13.76 2°55.689 337.5 5.4 332 9.6
2004-03-18 07:18:11 51°13.768 2°55.682 337.4 5.7 333 9.5
2004-03-18 07:18:15 51°13.774 2°55.677 337.9 5.7 333 9.6
2004-03-18 07:18:20 51°13.782 2°55.671 338.3 6.1 333 9.5
2004-03-18 07:18:25 51°13.79 2°55.666 338.4 6.2 333 9.7
2004-03-18 07:18:29 51°13.797 2°55.661 338.8 6.3 334 10
2004-03-18 07:18:35 51°13.806 2°55.653 339.3 6.6 335 10
2004-03-18 07:18:41 51°13.817 2°55.646 340 6.7 335 10
2004-03-18 07:18:45 51°13.824 2°55.641 340.1 6.8 335 10.1
2004-03-18 07:18:47 51°13.827 2°55.638 339.9 6.9 336 10
2004-03-18 07:18:55 51°13.842 2°55.628 339.8 7 336 10.2
2004-03-18 07:19:00 51°13.851 2°55.622 340.2 7.1 336 9.8
2004-03-18 07:19:05 51°13.86 2°55.615 340.9 7.1 336 9.8
2004-03-18 07:19:11 51°13.87 2°55.607 341.1 7.2 337 9.7
2004-03-18 07:19:15 51°13.877 2°55.602 340.8 7.3 336 9.6
2004-03-18 07:19:20 51°13.887 2°55.595 340.6 7.4 336 9.6
2004-03-18 07:19:25 51°13.896 2°55.588 340.6 7.4 336 9.6
2004-03-18 07:19:29 51°13.903 2°55.583 340.9 7.5 336 9.5
2004-03-18 07:19:35 51°13.914 2°55.574 341.1 7.5 336 9.7
2004-03-18 07:19:40 51°13.923 2°55.568 341.1 7.5 336 9.9
2004-03-18 07:19:45 51°13.933 2°55.561 341.2 7.6 336 9.8
2004-03-18 07:19:51 51°13.944 2°55.553 341.8 7.6 337 10.3
2004-03-18 07:19:55 51°13.952 2°55.548 342.2 7.6 337 10.1
2004-03-18 07:20:00 51°13.963 2°55.542 342.6 7.7 338 10.2
2004-03-18 07:20:05 51°13.973 2°55.536 343.1 7.7 338 10.2
2004-03-18 07:20:11 51°13.985 2°55.528 343.3 7.7 338 10.1
2004-03-18 07:20:15 51°13.993 2°55.523 343.3 7.7 339 10.3
2004-03-18 07:20:20 51°14.004 2°55.517 343.3 7.7 339 10.1
2004-03-18 07:20:25 51°14.014 2°55.511 343.5 7.8 339 10.6
2004-03-18 07:20:29 51°14.022 2°55.506 343.5 7.8 339 10.9
2004-03-18 07:20:35 51°14.034 2°55.498 343 7.8 338 10.7
2004-03-18 07:20:40 51°14.044 2°55.492 342.7 7.8 338 10.7
2004-03-18 07:20:45 51°14.054 2°55.485 342.9 7.8 339 10.7
2004-03-18 07:20:49 51°14.062 2°55.48 342.7 7.9 338 10.8
2004-03-18 07:20:55 51°14.075 2°55.472 342.4 8.1 338 10.7
2004-03-18 07:21:00 51°14.085 2°55.465 342.5 8.1 338 10.7
2004-03-18 07:21:05 51°14.096 2°55.458 342.5 8.4 337 -999
2004-03-18 07:21:11 51°14.109 2°55.449 341.8 8.4 337 -999
2004-03-18 07:21:16 51°14.12 2°55.441 341.1 8.7 336 -999
2004-03-18 07:21:21 51°14.131 2°55.433 340.2 9 335 10.8
2004-03-18 07:21:25 51°14.141 2°55.425 339.1 9 335 -999
2004-03-18 07:21:31 51°14.154 2°55.414 338.1 9.4 332 -999
2004-03-18 07:21:36 51°14.166 2°55.403 336 9.6 330 10.7
2004-03-18 07:21:40 51°14.175 2°55.394 333.6 9.7 328 10.7
2004-03-18 07:21:45 51°14.186 2°55.381 331.6 9.8 325 10.7
2004-03-18 07:21:51 51°14.199 2°55.365 329.5 9.9 324 -999
2004-03-18 07:21:56 51°14.21 2°55.351 327 9.9 321 -999
2004-03-18 07:22:01 51°14.22 2°55.337 323.8 10 319 -999
2004-03-18 07:22:05 51°14.228 2°55.324 322 10 318 11.3
2004-03-18 07:22:11 51°14.24 2°55.305 320.2 10.1 316 -999
2004-03-18 07:22:16 51°14.25 2°55.289 317.9 10.1 312 10.7
2004-03-18 07:22:21 51°14.259 2°55.271 315.4 10.2 310 -999
2004-03-18 07:22:25 51°14.266 2°55.257 313.8 10.2 310 10.7
2004-03-18 07:22:31 51°14.277 2°55.236 313 10.3 309 -999
2004-03-18 07:22:35 51°14.283 2°55.221 312.9 10.3 308 -999
2004-03-18 07:22:41 51°14.294 2°55.2 312.7 10.3 308 -999
2004-03-18 07:22:45 51°14.301 2°55.185 312.1 10.3 307 -999
2004-03-18 07:22:51 51°14.311 2°55.164 312.1 10.3 307 -999
2004-03-18 07:22:55 51°14.318 2°55.149 312 10.3 306 11.5
2004-03-18 07:23:01 51°14.328 2°55.127 311.1 10.4 306 -999
2004-03-18 07:23:05 51°14.334 2°55.111 310.3 10.4 305 10.6
2004-03-18 07:23:11 51°14.344 2°55.088 309.4 10.4 304 11.6
2004-03-18 07:23:15 51°14.35 2°55.072 308.4 10.6 303 11.1
2004-03-18 07:23:21 51°14.36 2°55.047 307 10.9 300 10.9
2004-03-18 07:23:25 51°14.365 2°55.03 305.2 11.1 298 10.7
2004-03-18 07:23:29 51°14.37 2°55.011 302.5 11.3 294 10.7
2004-03-18 07:23:35 51°14.378 2°54.983 298.8 11.5 293 10.4
2004-03-18 07:23:39 51°14.383 2°54.964 297.9 11.5 293 10.3
2004-03-18 07:23:45 51°14.39 2°54.935 297.5 11.8 291 10.3
2004-03-18 07:23:49 51°14.394 2°54.915 296.3 11.8 290 10.3
2004-03-18 07:23:56 51°14.4 2°54.879 293.9 11.9 285 10.4
2004-03-18 07:24:00 51°14.402 2°54.858 290.8 12 281 10.4
2004-03-18 07:24:05 51°14.403 2°54.832 285.5 12 281 10.4
2004-03-18 07:24:10 51°14.403 2°54.805 278.3 12 269 10.6
2004-03-18 07:24:15 51°14.401 2°54.779 274.2 12 268 10.7
2004-03-18 07:24:20 51°14.398 2°54.752 269 12.1 261 10.4
2004-03-18 07:24:25 51°14.394 2°54.726 264.9 12.1 261 10.4
2004-03-18 07:24:31 51°14.388 2°54.695 261.8 12.2 254 10.4
2004-03-18 07:24:35 51°14.384 2°54.675 258 12.2 253 10.4
2004-03-18 07:24:40 51°14.376 2°54.65 253.1 12.3 247 10.3
2004-03-18 07:24:45 51°14.368 2°54.625 249 12.4 244 10.1
2004-03-18 07:24:49 51°14.362 2°54.606 246.2 12.4 242 9.7
2004-03-18 07:24:55 51°14.351 2°54.577 244.5 12.5 240 9.4
2004-03-18 07:25:00 51°14.342 2°54.553 243.8 12.5 240 9.3
2004-03-18 07:25:05 51°14.333 2°54.529 242.9 12.6 239 9.2
2004-03-18 07:25:11 51°14.321 2°54.501 241.6 12.7 238 9.1
2004-03-18 07:25:15 51°14.314 2°54.481 240.7 12.9 237 9.1
2004-03-18 07:25:20 51°14.304 2°54.457 240.6 12.9 237 9.1
2004-03-18 07:25:25 51°14.295 2°54.432 241.4 13.1 239 9
2004-03-18 07:25:31 51°14.284 2°54.401 243.4 13.1 241 9.1
2004-03-18 07:25:35 51°14.277 2°54.381 244.8 13.2 241 9
2004-03-18 07:25:40 51°14.268 2°54.355 245 13.2 241 8.9
2004-03-18 07:25:45 51°14.259 2°54.329 245.7 13.2 241 8.9
2004-03-18 07:25:49 51°14.253 2°54.308 246.8 13.3 243 9
2004-03-18 07:25:55 51°14.243 2°54.276 247.2 13.3 243 8.9
2004-03-18 07:26:00 51°14.234 2°54.25 247.1 13.4 243 8.9
2004-03-18 07:26:05 51°14.225 2°54.224 246.5 13.4 242 8.9
2004-03-18 07:26:09 51°14.218 2°54.203 245.4 13.4 241 8.9
2004-03-18 07:26:15 51°14.207 2°54.173 244.4 13.4 240 8.9
2004-03-18 07:26:20 51°14.197 2°54.147 243.8 13.4 240 8.9
2004-03-18 07:26:25 51°14.187 2°54.122 243 13.4 239 8.9
2004-03-18 07:26:30 51°14.177 2°54.097 242.7 13.4 238 8.8
2004-03-18 07:26:35 51°14.168 2°54.071 242.4 13.5 238 8.8
2004-03-18 07:26:40 51°14.158 2°54.046 242.4 13.5 239 8.9
2004-03-18 07:26:45 51°14.148 2°54.02 243 13.5 239 8.9
2004-03-18 07:26:51 51°14.137 2°53.989 243.6 13.5 240 8.9
2004-03-18 07:26:55 51°14.13 2°53.969 244.1 13.5 240 8.9
2004-03-18 07:26:59 51°14.122 2°53.948 244.3 13.5 240 8.9
2004-03-18 07:27:05 51°14.111 2°53.916 244.5 13.5 241 9
2004-03-18 07:27:10 51°14.102 2°53.89 244.5 13.5 240 9
2004-03-18 07:27:15 51°14.093 2°53.864 244.4 13.6 240 9
2004-03-18 07:27:20 51°14.083 2°53.838 244.1 13.6 240 8.9
2004-03-18 07:27:25 51°14.074 2°53.813 243.7 13.6 240 9
2004-03-18 07:27:30 51°14.064 2°53.787 243.7 13.6 239 9
2004-03-18 07:27:35 51°14.054 2°53.761 243.6 13.6 240 9
2004-03-18 07:27:40 51°14.045 2°53.735 243.6 13.6 240 9
2004-03-18 07:27:45 51°14.036 2°53.708 243.7 13.6 240 9
2004-03-18 07:27:49 51°14.028 2°53.688 243.8 13.6 240 9
2004-03-18 07:27:55 51°14.017 2°53.656 244.2 13.6 241 9.1
2004-03-18 07:28:00 51°14.007 2°53.63 244.5 13.7 240 9.1
2004-03-18 07:28:05 51°13.998 2°53.603 244.9 13.7 241 9.2
2004-03-18 07:28:09 51°13.991 2°53.582 244.8 13.7 240 9.1
2004-03-18 07:28:15 51°13.98 2°53.55 244.7 13.7 241 9.2
2004-03-18 07:28:20 51°13.97 2°53.524 244.6 13.7 240 9.2
2004-03-18 07:28:25 51°13.961 2°53.497 244.5 13.9 240 9.2
2004-03-18 07:28:31 51°13.949 2°53.465 244.5 13.9 240 9.2
2004-03-18 07:28:35 51°13.942 2°53.444 244.4 14 241 9.2
2004-03-18 07:28:40 51°13.932 2°53.417 244.5 14 241 9.2
2004-03-18 07:28:45 51°13.923 2°53.389 244.7 14 241 9.2
2004-03-18 07:28:49 51°13.915 2°53.367 245.1 14.1 241 9.2
2004-03-18 07:28:55 51°13.904 2°53.335 245.1 14.2 241 9.2
2004-03-18 07:29:00 51°13.894 2°53.307 245.1 14.2 241 9.3
2004-03-18 07:29:05 51°13.885 2°53.28 245.1 14.2 241 9.3
2004-03-18 07:29:09 51°13.877 2°53.258 245.1 14.3 241 9.3
2004-03-18 07:29:15 51°13.865 2°53.224 245.1 14.3 241 9.3
2004-03-18 07:29:20 51°13.856 2°53.197 244.9 14.4 241 9.3
2004-03-18 07:29:25 51°13.846 2°53.169 244.5 14.4 240 9.4
2004-03-18 07:29:31 51°13.834 2°53.136 244.3 14.4 240 9.3
2004-03-18 07:29:35 51°13.826 2°53.114 244 14.4 240 9.4
2004-03-18 07:29:41 51°13.813 2°53.081 244 14.5 240 9.4
2004-03-18 07:29:45 51°13.806 2°53.058 243.8 14.5 240 9.4
2004-03-18 07:29:49 51°13.798 2°53.036 244.1 14.5 240 9.4
2004-03-18 07:29:55 51°13.786 2°53.003 244.1 14.6 241 9.4
2004-03-18 07:30:00 51°13.776 2°52.975 244.5 14.6 241 9.5
2004-03-18 07:30:05 51°13.766 2°52.947 244.5 14.6 241 9.5
2004-03-18 07:30:11 51°13.755 2°52.913 244.6 14.6 241 9.5
2004-03-18 07:30:15 51°13.747 2°52.89 244.6 14.6 241 9.5
2004-03-18 07:30:21 51°13.735 2°52.856 244.7 14.6 241 9.6
2004-03-18 07:30:25 51°13.727 2°52.834 244.7 14.6 241 9.6
2004-03-18 07:30:29 51°13.719 2°52.811 244.8 14.6 241 9.6
2004-03-18 07:30:35 51°13.708 2°52.777 244.8 14.6 241 9.7
2004-03-18 07:30:41 51°13.696 2°52.743 244.8 14.6 241 9.7
2004-03-18 07:30:45 51°13.688 2°52.721 244.9 14.6 241 9.7
2004-03-18 07:30:49 51°13.68 2°52.698 245.1 14.7 242 9.8
2004-03-18 07:30:55 51°13.669 2°52.664 245.5 14.7 242 9.7
2004-03-18 07:31:00 51°13.659 2°52.635 245.9 14.7 242 9.8
2004-03-18 07:31:05 51°13.65 2°52.606 246.2 14.7 242 9.7
2004-03-18 07:31:10 51°13.64 2°52.578 246.3 14.7 242 9.8
2004-03-18 07:31:15 51°13.631 2°52.549 246.6 14.7 242 9.8
2004-03-18 07:31:20 51°13.621 2°52.521 246.7 14.7 242 9.8
2004-03-18 07:31:25 51°13.611 2°52.493 246.4 14.7 242 9.9
2004-03-18 07:31:31 51°13.599 2°52.458 246.1 14.7 242 9.9
2004-03-18 07:31:35 51°13.592 2°52.435 246 14.7 241 9.9
2004-03-18 07:31:39 51°13.584 2°52.413 245.5 14.7 241 9.9
2004-03-18 07:31:45 51°13.572 2°52.378 245.5 14.7 242 9.9
2004-03-18 07:31:50 51°13.562 2°52.35 245.8 14.7 242 10
2004-03-18 07:31:55 51°13.553 2°52.321 246 14.7 242 9.9
2004-03-18 07:32:00 51°13.544 2°52.292 246.1 14.7 242 10
2004-03-18 07:32:05 51°13.534 2°52.263 246.6 14.7 242 10.1
2004-03-18 07:32:09 51°13.526 2°52.24 246.9 14.7 243 10
2004-03-18 07:32:15 51°13.515 2°52.206 247.3 14.7 242 10.1
2004-03-18 07:32:20 51°13.505 2°52.177 247 14.7 243 10.1
2004-03-18 07:32:25 51°13.495 2°52.148 246.7 14.7 242 10.2
2004-03-18 07:32:29 51°13.488 2°52.125 246.5 14.7 242 10.2
2004-03-18 07:32:35 51°13.476 2°52.091 246.2 14.7 241 10.2
2004-03-18 07:32:40 51°13.466 2°52.062 245.8 14.7 242 10.2
2004-03-18 07:32:45 51°13.457 2°52.034 245.9 14.7 242 10.2
2004-03-18 07:32:49 51°13.449 2°52.011 246.1 14.7 242 10.2
2004-03-18 07:32:55 51°13.438 2°51.976 246.5 14.7 242 10.3
2004-03-18 07:33:00 51°13.429 2°51.947 246.5 14.7 242 10.2
2004-03-18 07:33:05 51°13.419 2°51.918 246.6 14.7 242 10.3
2004-03-18 07:33:11 51°13.408 2°51.884 246.7 14.7 242 10.2
2004-03-18 07:33:15 51°13.4 2°51.861 246.9 14.7 242 10.2
2004-03-18 07:33:20 51°13.39 2°51.832 246.9 14.7 242 10.2
2004-03-18 07:33:25 51°13.381 2°51.804 246.9 14.7 242 10.2
2004-03-18 07:33:31 51°13.369 2°51.769 246.9 14.7 242 10.2
2004-03-18 07:33:35 51°13.361 2°51.746 246.7 14.7 242 10.2
2004-03-18 07:33:41 51°13.349 2°51.712 246.2 14.7 242 10.2
2004-03-18 07:33:45 51°13.341 2°51.689 245.8 14.7 241 10.3
2004-03-18 07:33:51 51°13.33 2°51.655 245.7 14.7 241 10.3
2004-03-18 07:33:55 51°13.322 2°51.632 245.5 14.7 241 10.2
2004-03-18 07:34:00 51°13.312 2°51.603 245.8 14.7 241 10.3
2004-03-18 07:34:05 51°13.303 2°51.575 246.1 14.7 242 10.2
2004-03-18 07:34:09 51°13.295 2°51.552 246.5 14.7 242 10.2
2004-03-18 07:34:15 51°13.283 2°51.518 246.5 14.7 242 10.3
2004-03-18 07:34:21 51°13.272 2°51.483 246.2 14.7 242 10.3
2004-03-18 07:34:25 51°13.264 2°51.461 245.7 14.7 241 10.2
2004-03-18 07:34:29 51°13.256 2°51.438 245.7 14.7 241 10.2
2004-03-18 07:34:35 51°13.244 2°51.403 246 14.7 242 10.3
2004-03-18 07:34:41 51°13.233 2°51.369 246.3 14.7 242 10.2
2004-03-18 07:34:45 51°13.225 2°51.346 246.7 14.7 242 10.1
2004-03-18 07:34:49 51°13.217 2°51.323 246.9 14.7 242 10.3
2004-03-18 07:34:56 51°13.204 2°51.283 246.6 14.7 242 10.3
2004-03-18 07:34:59 51°13.198 2°51.266 246.4 14.7 242 10.3
2004-03-18 07:35:05 51°13.186 2°51.232 246 14.7 242 10.3
2004-03-18 07:35:11 51°13.174 2°51.197 245.6 14.7 241 10.3
2004-03-18 07:35:15 51°13.166 2°51.175 245.6 14.7 241 10.4
2004-03-18 07:35:20 51°13.156 2°51.146 245.6 14.7 241 10.4
2004-03-18 07:35:25 51°13.146 2°51.118 245.9 14.7 242 10.5
2004-03-18 07:35:31 51°13.135 2°51.083 246.4 14.7 242 10.5
2004-03-18 07:35:35 51°13.128 2°51.06 246.7 14.7 242 10.5
2004-03-18 07:35:40 51°13.118 2°51.032 246.8 14.7 242 10.5
2004-03-18 07:35:45 51°13.108 2°51.003 246.8 14.7 242 10.5
2004-03-18 07:35:50 51°13.099 2°50.974 246.5 14.7 242 10.5
2004-03-18 07:35:55 51°13.089 2°50.946 246.4 14.7 241 10.5
2004-03-18 07:36:00 51°13.08 2°50.917 246 14.7 241 10.5
2004-03-18 07:36:05 51°13.07 2°50.889 246 14.7 241 10.5
2004-03-18 07:36:09 51°13.062 2°50.866 246 14.7 241 10.5
2004-03-18 07:36:15 51°13.051 2°50.832 246 14.6 242 10.5
2004-03-18 07:36:20 51°13.041 2°50.803 246.1 14.6 242 10.5
2004-03-18 07:36:25 51°13.032 2°50.775 246.4 14.6 242 10.5
2004-03-18 07:36:31 51°13.02 2°50.741 246.6 14.6 242 10.5
2004-03-18 07:36:35 51°13.013 2°50.718 246.7 14.6 242 10.5
2004-03-18 07:36:41 51°13.002 2°50.684 246.8 14.6 242 10.5
2004-03-18 07:36:45 51°12.994 2°50.661 246.9 14.6 242 10.6
2004-03-18 07:36:50 51°12.985 2°50.633 246.8 14.6 242 10.6
2004-03-18 07:36:55 51°12.975 2°50.604 246.8 14.6 242 10.6
2004-03-18 07:37:00 51°12.966 2°50.576 246.7 14.6 242 10.6
2004-03-18 07:37:05 51°12.956 2°50.548 246.7 14.6 242 10.7
2004-03-18 07:37:10 51°12.947 2°50.519 246.7 14.5 242 10.6
2004-03-18 07:37:15 51°12.937 2°50.491 246.3 14.6 242 10.7
2004-03-18 07:37:21 51°12.925 2°50.457 246.1 14.6 241 10.6
2004-03-18 07:37:25 51°12.918 2°50.435 246 14.6 241 10.6
2004-03-18 07:37:30 51°12.908 2°50.406 245.8 14.6 242 10.7
2004-03-18 07:37:35 51°12.898 2°50.378 245.8 14.6 241 10.7
2004-03-18 07:37:41 51°12.887 2°50.344 245.9 14.6 242 10.6
2004-03-18 07:37:45 51°12.879 2°50.321 246.2 14.6 242 10.7
2004-03-18 07:37:50 51°12.87 2°50.292 246.4 14.6 242 10.7
2004-03-18 07:37:55 51°12.86 2°50.264 246.7 14.6 242 10.7
2004-03-18 07:38:00 51°12.851 2°50.235 246.7 14.6 242 10.7
2004-03-18 07:38:05 51°12.841 2°50.207 246.7 14.6 242 10.7
2004-03-18 07:38:10 51°12.831 2°50.179 246.6 14.6 242 10.7
2004-03-18 07:38:15 51°12.822 2°50.15 246 14.6 241 10.8
2004-03-18 07:38:21 51°12.81 2°50.116 245.8 14.6 241 10.7
2004-03-18 07:38:25 51°12.803 2°50.093 246 14.6 242 10.7
2004-03-18 07:38:30 51°12.793 2°50.065 246 14.6 242 10.8
2004-03-18 07:38:35 51°12.784 2°50.037 246.6 14.6 242 10.7
2004-03-18 07:38:40 51°12.774 2°50.008 246.8 14.6 243 10.8
2004-03-18 07:38:45 51°12.765 2°49.98 246.9 14.6 242 10.8
2004-03-18 07:38:50 51°12.756 2°49.951 246.8 14.6 242 10.8
2004-03-18 07:38:55 51°12.746 2°49.923 246.7 14.6 242 10.8
2004-03-18 07:39:01 51°12.735 2°49.888 246.7 14.6 242 10.9
2004-03-18 07:39:05 51°12.727 2°49.866 246.7 14.6 242 10.9
2004-03-18 07:39:09 51°12.719 2°49.843 246.6 14.6 242 10.9
2004-03-18 07:39:16 51°12.706 2°49.803 246.6 14.6 242 10.9
2004-03-18 07:39:20 51°12.699 2°49.78 246.5 14.6 242 10.9
2004-03-18 07:39:25 51°12.689 2°49.752 246.5 14.6 242 10.9
2004-03-18 07:39:31 51°12.678 2°49.718 246.5 14.6 242 10.9
2004-03-18 07:39:35 51°12.67 2°49.695 246.6 14.6 242 10.9
2004-03-18 07:39:39 51°12.662 2°49.673 246.5 14.6 243 10.9
2004-03-18 07:39:45 51°12.651 2°49.638 246.6 14.5 242 11
2004-03-18 07:39:49 51°12.644 2°49.616 246.7 14.6 243 11
2004-03-18 07:39:55 51°12.632 2°49.581 246.7 14.6 243 10.9
2004-03-18 07:40:00 51°12.623 2°49.552 246.8 14.6 243 11
2004-03-18 07:40:05 51°12.613 2°49.524 246.3 14.6 243 11
2004-03-18 07:40:11 51°12.602 2°49.491 246 14.6 242 11.1
2004-03-18 07:40:15 51°12.594 2°49.468 245.7 14.6 241 11
2004-03-18 07:40:20 51°12.584 2°49.439 245.5 14.6 242 11
2004-03-18 07:40:25 51°12.575 2°49.411 245.8 14.6 242 11.1
2004-03-18 07:40:29 51°12.567 2°49.388 246 14.6 242 11.1
2004-03-18 07:40:35 51°12.556 2°49.353 246.3 14.6 242 11.1
2004-03-18 07:40:40 51°12.547 2°49.325 246.5 14.6 242 11.1
2004-03-18 07:40:45 51°12.537 2°49.296 246.4 14.6 242 11.1
2004-03-18 07:40:49 51°12.53 2°49.274 246.1 14.6 242 11.1
2004-03-18 07:40:55 51°12.518 2°49.239 246 14.6 242 11.1
2004-03-18 07:40:59 51°12.51 2°49.217 245.9 14.6 242 11
2004-03-18 07:41:05 51°12.499 2°49.182 246 14.6 242 11.1
2004-03-18 07:41:10 51°12.49 2°49.154 246 14.6 242 11
2004-03-18 07:41:15 51°12.48 2°49.125 246 14.6 242 11.1
2004-03-18 07:41:20 51°12.471 2°49.097 246.2 14.6 242 11.1
2004-03-18 07:41:25 51°12.461 2°49.068 246.2 14.6 242 11.2
2004-03-18 07:41:31 51°12.45 2°49.034 246.1 14.6 242 11.2
2004-03-18 07:41:35 51°12.442 2°49.011 246.3 14.6 242 11.2
2004-03-18 07:41:40 51°12.433 2°48.982 246.5 14.6 242 11.2
2004-03-18 07:41:45 51°12.424 2°48.954 246.6 14.6 243 11.2
2004-03-18 07:41:50 51°12.414 2°48.925 246.7 14.6 242 11.2
2004-03-18 07:41:55 51°12.405 2°48.896 246.3 14.6 242 11.2
2004-03-18 07:42:00 51°12.395 2°48.868 246.2 14.6 242 11.2
2004-03-18 07:42:05 51°12.386 2°48.839 246.1 14.6 242 11.2
2004-03-18 07:42:09 51°12.378 2°48.817 246 14.6 242 11.2
2004-03-18 07:42:15 51°12.367 2°48.782 246 14.6 242 11.3
2004-03-18 07:42:20 51°12.357 2°48.754 246.1 14.6 242 11.2
2004-03-18 07:42:25 51°12.348 2°48.725 246.2 14.6 242 11.2
2004-03-18 07:42:30 51°12.338 2°48.697 246.2 14.6 242 11.3
2004-03-18 07:42:35 51°12.329 2°48.668 246 14.6 242 11.3
2004-03-18 07:42:40 51°12.32 2°48.64 246.6 14.6 243 11.4
2004-03-18 07:42:45 51°12.31 2°48.611 247.2 14.6 244 11.3
2004-03-18 07:42:50 51°12.302 2°48.582 247.6 14.5 244 11.3
2004-03-18 07:42:55 51°12.293 2°48.553 248.3 14.5 244 11.4
2004-03-18 07:43:01 51°12.283 2°48.518 248.7 14.5 245 11.4
2004-03-18 07:43:05 51°12.276 2°48.495 248.9 14.5 245 11.4
2004-03-18 07:43:09 51°12.269 2°48.472 248.9 14.5 245 11.5
2004-03-18 07:43:16 51°12.256 2°48.432 248.7 14.5 244 11.4
2004-03-18 07:43:19 51°12.251 2°48.414 248.5 14.5 244 11.5
2004-03-18 07:43:25 51°12.24 2°48.38 248 14.5 244 11.5
2004-03-18 07:43:30 51°12.231 2°48.351 247.6 14.5 243 11.5
2004-03-18 07:43:35 51°12.222 2°48.323 247.5 14.5 244 11.5
2004-03-18 07:43:41 51°12.211 2°48.288 247.5 14.5 244 11.6
2004-03-18 07:43:45 51°12.204 2°48.265 247.8 14.5 244 11.5
2004-03-18 07:43:49 51°12.197 2°48.242 248.2 14.5 244 11.5
2004-03-18 07:43:55 51°12.187 2°48.208 248.6 14.5 245 11.6
2004-03-18 07:43:59 51°12.18 2°48.184 249 14.5 245 11.5
2004-03-18 07:44:05 51°12.17 2°48.15 249.1 14.5 245 11.5
2004-03-18 07:44:11 51°12.159 2°48.115 249.1 14.5 245 11.6
2004-03-18 07:44:15 51°12.153 2°48.092 248.9 14.5 244 11.6
2004-03-18 07:44:20 51°12.144 2°48.063 248.2 14.5 243 11.6
2004-03-18 07:44:25 51°12.135 2°48.034 248.2 14.5 244 11.6
2004-03-18 07:44:29 51°12.128 2°48.011 248.2 14.5 244 11.6
2004-03-18 07:44:35 51°12.117 2°47.977 248.3 14.5 244 11.6
2004-03-18 07:44:40 51°12.109 2°47.948 248.7 14.5 245 11.6
2004-03-18 07:44:45 51°12.1 2°47.919 248.7 14.5 244 11.7
2004-03-18 07:44:50 51°12.091 2°47.89 248.4 14.5 244 11.6
2004-03-18 07:44:55 51°12.082 2°47.861 248.2 14.5 244 11.7
2004-03-18 07:45:00 51°12.074 2°47.833 248.2 14.5 244 11.7
2004-03-18 07:45:05 51°12.065 2°47.804 248.2 14.5 244 11.7
2004-03-18 07:45:11 51°12.055 2°47.769 248.5 14.5 244 11.7
2004-03-18 07:45:15 51°12.048 2°47.746 248.7 14.5 244 11.7
2004-03-18 07:45:20 51°12.039 2°47.717 249 14.5 245 11.7
2004-03-18 07:45:25 51°12.031 2°47.688 248.8 14.5 244 11.7
2004-03-18 07:45:31 51°12.02 2°47.653 248.8 14.5 244 11.7
2004-03-18 07:45:35 51°12.013 2°47.63 248.8 14.5 245 11.8
2004-03-18 07:45:40 51°12.005 2°47.601 248.8 14.5 245 11.8
2004-03-18 07:45:45 51°11.996 2°47.572 248.9 14.5 245 11.8
2004-03-18 07:45:51 51°11.986 2°47.537 248.9 14.5 245 11.8
2004-03-18 07:45:55 51°11.979 2°47.514 248.9 14.5 245 11.8
2004-03-18 07:46:00 51°11.97 2°47.485 249 14.5 245 11.8
2004-03-18 07:46:05 51°11.962 2°47.456 248.3 14.5 244 11.8
2004-03-18 07:46:10 51°11.953 2°47.427 248.2 14.5 244 11.8
2004-03-18 07:46:15 51°11.944 2°47.399 248.2 14.5 244 11.9
2004-03-18 07:46:20 51°11.935 2°47.37 248.1 14.5 244 11.8
2004-03-18 07:46:25 51°11.926 2°47.341 248 14.5 244 11.9
2004-03-18 07:46:29 51°11.919 2°47.318 248 14.5 244 11.8
2004-03-18 07:46:35 51°11.909 2°47.284 248 14.5 244 11.8
2004-03-18 07:46:40 51°11.9 2°47.255 247.9 14.5 244 11.8
2004-03-18 07:46:45 51°11.891 2°47.226 247.8 14.5 244 11.8
2004-03-18 07:46:51 51°11.88 2°47.192 247.9 14.5 244 11.8
2004-03-18 07:46:55 51°11.873 2°47.169 247.7 14.5 244 11.8
2004-03-18 07:47:00 51°11.865 2°47.14 247.8 14.5 244 11.8
2004-03-18 07:47:05 51°11.856 2°47.111 248.1 14.5 244 11.8
2004-03-18 07:47:09 51°11.849 2°47.088 248.2 14.5 244 11.7
2004-03-18 07:47:15 51°11.838 2°47.053 248.6 14.5 245 11.7
2004-03-18 07:47:21 51°11.828 2°47.018 248.4 14.5 244 11.8
2004-03-18 07:47:25 51°11.821 2°46.995 248.3 14.5 244 11.8
2004-03-18 07:47:30 51°11.812 2°46.966 247.9 14.5 244 11.8
2004-03-18 07:47:35 51°11.803 2°46.937 247.7 14.5 244 11.8
2004-03-18 07:47:40 51°11.795 2°46.908 248.1 14.5 245 11.7
2004-03-18 07:47:45 51°11.786 2°46.879 248.8 14.5 245 11.8
2004-03-18 07:47:49 51°11.78 2°46.856 250 14.5 246 11.9
2004-03-18 07:47:55 51°11.77 2°46.821 250.9 14.5 247 11.9
2004-03-18 07:48:00 51°11.763 2°46.791 251.5 14.5 247 11.9
2004-03-18 07:48:05 51°11.755 2°46.761 251.8 14.5 247 11.9
2004-03-18 07:48:11 51°11.747 2°46.725 252 14.5 248 11.9
2004-03-18 07:48:15 51°11.741 2°46.702 252 14.5 248 11.9
2004-03-18 07:48:20 51°11.733 2°46.672 252.1 14.4 248 12
2004-03-18 07:48:25 51°11.725 2°46.642 251.8 14.5 247 12
2004-03-18 07:48:29 51°11.719 2°46.618 251.4 14.5 247 12
2004-03-18 07:48:35 51°11.71 2°46.583 251.3 14.5 247 12
2004-03-18 07:48:40 51°11.702 2°46.553 251.5 14.5 248 12.1
2004-03-18 07:48:45 51°11.695 2°46.524 251.7 14.4 248 12.2
2004-03-18 07:48:49 51°11.689 2°46.5 251.8 14.5 248 12.1
2004-03-18 07:48:55 51°11.68 2°46.465 252.2 14.5 248 12.2
2004-03-18 07:49:00 51°11.673 2°46.435 252.5 14.5 249 12.2
2004-03-18 07:49:05 51°11.666 2°46.405 253 14.5 249 12.2
2004-03-18 07:49:09 51°11.661 2°46.381 253.2 14.5 249 12.1
2004-03-18 07:49:15 51°11.652 2°46.346 252.9 14.5 248 12.2
2004-03-18 07:49:21 51°11.644 2°46.311 252.6 14.5 248 12.2
2004-03-18 07:49:25 51°11.638 2°46.287 252.6 14.5 249 12.2
2004-03-18 07:49:29 51°11.633 2°46.263 252.7 14.5 248 12.3
2004-03-18 07:49:35 51°11.624 2°46.227 252.5 14.5 248 12.3
2004-03-18 07:49:40 51°11.617 2°46.198 252.5 14.4 248 12.2
2004-03-18 07:49:45 51°11.61 2°46.168 252.4 14.5 248 12.2
2004-03-18 07:49:50 51°11.602 2°46.138 252.2 14.5 248 12.3
2004-03-18 07:49:55 51°11.594 2°46.108 252.1 14.4 248 12.3
2004-03-18 07:50:00 51°11.586 2°46.079 251.7 14.5 247 12.2
2004-03-18 07:50:05 51°11.577 2°46.05 251.7 14.5 248 12.2
2004-03-18 07:50:09 51°11.57 2°46.026 251.6 14.4 247 12.2
2004-03-18 07:50:15 51°11.56 2°45.991 251.2 14.5 247 12.2
2004-03-18 07:50:20 51°11.553 2°45.962 251.7 14.5 247 12.2
2004-03-18 07:50:25 51°11.545 2°45.932 251.9 14.4 248 12.2
2004-03-18 07:50:30 51°11.538 2°45.903 252.3 14.4 248 12.2
2004-03-18 07:50:35 51°11.53 2°45.873 252.7 14.4 249 12.2
2004-03-18 07:50:41 51°11.521 2°45.837 252.8 14.4 249 12.2
2004-03-18 07:50:45 51°11.515 2°45.814 253 14.5 249 12.2
2004-03-18 07:50:48 51°11.511 2°45.796 252.9 14.4 248 12.2
2004-03-18 07:50:56 51°11.499 2°45.749 252.7 14.4 248 12.3
2004-03-18 07:51:00 51°11.493 2°45.725 252.4 14.4 248 12.2
2004-03-18 07:51:05 51°11.485 2°45.696 252.1 14.5 248 12.2
2004-03-18 07:51:11 51°11.476 2°45.659 251.8 14.5 248 12.2
2004-03-18 07:51:15 51°11.471 2°45.636 252 14.5 248 12.2
2004-03-18 07:51:20 51°11.463 2°45.606 252.2 14.5 249 12.2
2004-03-18 07:51:25 51°11.456 2°45.576 252.5 14.5 249 12.2
2004-03-18 07:51:29 51°11.45 2°45.552 252.7 14.5 249 12.3
2004-03-18 07:51:35 51°11.442 2°45.516 253 14.5 249 12.2
2004-03-18 07:51:40 51°11.434 2°45.486 253 14.5 249 12.2
2004-03-18 07:51:45 51°11.427 2°45.456 252.8 14.5 249 12.3
2004-03-18 07:51:51 51°11.418 2°45.421 252.5 14.5 248 12.3
2004-03-18 07:51:55 51°11.412 2°45.397 252.1 14.5 248 12.2
2004-03-18 07:52:00 51°11.404 2°45.368 251.9 14.5 248 12.3
2004-03-18 07:52:05 51°11.397 2°45.339 251.9 14.5 248 12.3
2004-03-18 07:52:11 51°11.388 2°45.303 251.9 14.5 248 12.2
2004-03-18 07:52:15 51°11.382 2°45.279 252.4 14.5 248 12.2
2004-03-18 07:52:21 51°11.373 2°45.244 252.5 14.5 249 12.2
2004-03-18 07:52:25 51°11.367 2°45.22 252.7 14.5 249 12.2
2004-03-18 07:52:31 51°11.359 2°45.184 252.8 14.5 249 12.2
2004-03-18 07:52:36 51°11.351 2°45.154 252.7 14.5 248 12.2
2004-03-18 07:52:40 51°11.346 2°45.131 252.5 14.5 248 12.2
2004-03-18 07:52:45 51°11.338 2°45.101 252.3 14.5 248 12.2
2004-03-18 07:52:51 51°11.329 2°45.066 252 14.5 248 12.2
2004-03-18 07:52:55 51°11.322 2°45.042 251.6 14.5 248 12.2
2004-03-18 07:53:00 51°11.315 2°45.013 251.6 14.5 248 12.2
2004-03-18 07:53:05 51°11.307 2°44.983 251.6 14.4 248 12.1
2004-03-18 07:53:09 51°11.301 2°44.959 251.8 14.4 248 12.2
2004-03-18 07:53:16 51°11.291 2°44.918 252 14.4 248 12.2
2004-03-18 07:53:20 51°11.285 2°44.894 252.3 14.4 249 12.2
2004-03-18 07:53:25 51°11.278 2°44.865 252.5 14.4 248 12.2
2004-03-18 07:53:29 51°11.272 2°44.841 252.5 14.4 248 12.2
2004-03-18 07:53:35 51°11.263 2°44.805 252.4 14.4 248 12.2
2004-03-18 07:53:40 51°11.255 2°44.776 252.1 14.4 248 12.2
2004-03-18 07:53:45 51°11.247 2°44.747 252.1 14.4 248 12.2
2004-03-18 07:53:49 51°11.241 2°44.723 252.1 14.4 248 12.1
2004-03-18 07:53:55 51°11.232 2°44.688 251.8 14.5 248 12.2
2004-03-18 07:54:01 51°11.223 2°44.652 251.8 14.4 248 12.2
2004-03-18 07:54:05 51°11.217 2°44.628 252 14.4 249 12.1
2004-03-18 07:54:09 51°11.211 2°44.604 252.5 14.4 249 12.1
2004-03-18 07:54:15 51°11.203 2°44.569 252.6 14.4 248 12.2
2004-03-18 07:54:20 51°11.195 2°44.539 252.4 14.4 248 12.2
2004-03-18 07:54:25 51°11.188 2°44.51 252.1 14.5 248 12.2
2004-03-18 07:54:31 51°11.179 2°44.474 251.8 14.5 248 12.1
2004-03-18 07:54:35 51°11.173 2°44.45 251.8 14.5 248 12.1
2004-03-18 07:54:40 51°11.166 2°44.42 251.9 14.4 248 12.1
2004-03-18 07:54:45 51°11.158 2°44.391 252.2 14.4 248 12
2004-03-18 07:54:49 51°11.152 2°44.367 252.4 14.5 249 12
2004-03-18 07:54:55 51°11.144 2°44.332 252.8 14.4 249 12.1
2004-03-18 07:55:00 51°11.136 2°44.302 253 14.4 249 12.1
2004-03-18 07:55:05 51°11.129 2°44.272 252.5 14.4 249 12.1
2004-03-18 07:55:09 51°11.123 2°44.249 252.3 14.4 248 12.1
2004-03-18 07:55:15 51°11.115 2°44.213 252.5 14.4 248 12.1
2004-03-18 07:55:20 51°11.107 2°44.183 252.5 14.4 248 12.1
2004-03-18 07:55:25 51°11.1 2°44.153 252.5 14.4 248 12.1
2004-03-18 07:55:29 51°11.094 2°44.13 252.5 14.4 248 12.1
2004-03-18 07:55:35 51°11.086 2°44.094 252.5 14.4 249 12.1
2004-03-18 07:55:40 51°11.079 2°44.064 252.5 14.4 249 12.1
2004-03-18 07:55:45 51°11.072 2°44.034 252.8 14.4 249 12.1
2004-03-18 07:55:50 51°11.064 2°44.004 252.6 14.4 248 12.1
2004-03-18 07:55:55 51°11.057 2°43.975 252.2 14.4 248 12.1
2004-03-18 07:56:00 51°11.049 2°43.946 251.8 14.4 247 12.1
2004-03-18 07:56:05 51°11.041 2°43.917 251.4 14.4 247 12.1
2004-03-18 07:56:11 51°11.031 2°43.883 251.4 14.4 247 12.1
2004-03-18 07:56:15 51°11.025 2°43.859 251.3 14.4 248 12.1
2004-03-18 07:56:20 51°11.018 2°43.83 251.5 14.4 248 12.1
2004-03-18 07:56:25 51°11.011 2°43.8 252.5 14.4 250 12.1
2004-03-18 07:56:29 51°11.005 2°43.776 253.4 14.4 250 12
2004-03-18 07:56:35 51°10.998 2°43.74 254.3 14.4 251 12.1
2004-03-18 07:56:40 51°10.991 2°43.71 254.9 14.4 251 12
2004-03-18 07:56:45 51°10.984 2°43.68 255.3 14.4 251 12
2004-03-18 07:56:51 51°10.977 2°43.644 255.6 14.4 251 12.1
2004-03-18 07:56:55 51°10.971 2°43.62 255.8 14.4 251 12.1
2004-03-18 07:57:00 51°10.964 2°43.59 255.6 14.4 251 12
2004-03-18 07:57:05 51°10.958 2°43.56 255.2 14.4 250 12
2004-03-18 07:57:09 51°10.953 2°43.536 254.7 14.4 250 12.1
2004-03-18 07:57:15 51°10.945 2°43.5 254.7 14.4 251 12
2004-03-18 07:57:20 51°10.939 2°43.47 255.2 14.3 251 12.1
2004-03-18 07:57:25 51°10.932 2°43.44 255.6 14.3 251 12.1
2004-03-18 07:57:30 51°10.926 2°43.41 255.8 14.4 251 12.1
2004-03-18 07:57:35 51°10.919 2°43.38 256.1 14.4 252 12.1
2004-03-18 07:57:40 51°10.912 2°43.35 256.1 14.4 251 12.1
2004-03-18 07:57:45 51°10.906 2°43.32 255.8 14.4 251 12.2
2004-03-18 07:57:49 51°10.901 2°43.296 255.4 14.3 251 12.1
2004-03-18 07:57:55 51°10.893 2°43.26 255.2 14.3 251 12.1
2004-03-18 07:58:00 51°10.887 2°43.23 255.2 14.4 251 12.1
2004-03-18 07:58:05 51°10.88 2°43.2 255.3 14.3 251 12.2
2004-03-18 07:58:09 51°10.875 2°43.176 255.6 14.3 251 12.2
2004-03-18 07:58:15 51°10.868 2°43.14 256.1 14.3 252 12.2
2004-03-18 07:58:20 51°10.862 2°43.11 256.2 14.3 252 12.1
2004-03-18 07:58:25 51°10.855 2°43.08 256.2 14.3 252 12.2
2004-03-18 07:58:30 51°10.848 2°43.05 256.2 14.3 252 12.1
2004-03-18 07:58:35 51°10.842 2°43.02 255.9 14.4 253 12.1
2004-03-18 07:58:40 51°10.836 2°42.99 255.5 14.3 252 12.1
2004-03-18 07:58:45 51°10.829 2°42.96 255.2 14.3 251 12.2
2004-03-18 07:58:49 51°10.824 2°42.936 254.7 14.3 250 12.2
2004-03-18 07:58:55 51°10.816 2°42.9 254.7 14.4 251 12.3
2004-03-18 07:59:00 51°10.809 2°42.87 254.7 14.3 251 12.2
2004-03-18 07:59:05 51°10.803 2°42.84 254.7 14.3 251 12.2
2004-03-18 07:59:09 51°10.798 2°42.817 254.9 14.3 251 12.2
2004-03-18 07:59:15 51°10.79 2°42.781 255.3 14.3 251 12.2
2004-03-18 07:59:21 51°10.782 2°42.745 255.3 14.4 251 12.2
2004-03-18 07:59:25 51°10.777 2°42.72 255.6 14.3 252 12.2
2004-03-18 07:59:29 51°10.772 2°42.696 255.7 14.3 251 12.2
2004-03-18 07:59:35 51°10.764 2°42.661 255.6 14.3 251 12.2
2004-03-18 07:59:40 51°10.758 2°42.631 255.4 14.3 251 12.2
2004-03-18 07:59:45 51°10.751 2°42.601 255.1 14.3 251 12.2
2004-03-18 07:59:51 51°10.743 2°42.565 254.5 14.3 250 12.2
2004-03-18 07:59:55 51°10.738 2°42.542 254.3 14.3 250 12.2
2004-03-18 07:59:59 51°10.732 2°42.518 254.3 14.3 250 12.2
2004-03-18 08:00:05 51°10.724 2°42.482 254.5 14.3 250 12.2
2004-03-18 08:00:11 51°10.717 2°42.446 254.7 14.3 251 12.2
2004-03-18 08:00:15 51°10.712 2°42.422 255.4 14.3 251 12.2
2004-03-18 08:00:20 51°10.706 2°42.392 255.6 14.3 252 12.2
2004-03-18 08:00:25 51°10.699 2°42.362 256.1 14.3 252 12.2
2004-03-18 08:00:29 51°10.694 2°42.338 256 14.3 252 12.3
2004-03-18 08:00:35 51°10.687 2°42.303 255.7 14.3 252 12.3
2004-03-18 08:00:40 51°10.68 2°42.273 255.7 14.3 251 12.3
2004-03-18 08:00:45 51°10.674 2°42.243 255.3 14.3 251 12.3
2004-03-18 08:00:49 51°10.668 2°42.219 255.6 14.2 251 12.3
2004-03-18 08:00:55 51°10.661 2°42.184 254.7 14.2 252 12.3
2004-03-18 08:01:00 51°10.654 2°42.154 255.8 14.2 251 12.3
2004-03-18 08:01:05 51°10.648 2°42.124 255.1 14.2 251 12.3
2004-03-18 08:01:09 51°10.643 2°42.101 255.4 14.2 251 12.3
2004-03-18 08:01:15 51°10.635 2°42.065 255.9 14.2 251 12.3
2004-03-18 08:01:21 51°10.628 2°42.029 255.3 14.2 251 12.3
2004-03-18 08:01:25 51°10.623 2°42.006 255.4 14.2 252 12.3
2004-03-18 08:01:29 51°10.618 2°41.982 255.7 14.2 251 12.4
2004-03-18 08:01:36 51°10.608 2°41.94 255.4 14.2 251 12.3
2004-03-18 08:01:40 51°10.603 2°41.917 255.3 14.2 251 12.4
2004-03-18 08:01:45 51°10.597 2°41.887 255.2 14.2 251 12.4
2004-03-18 08:01:49 51°10.592 2°41.863 255.7 14.2 251 12.4
2004-03-18 08:01:56 51°10.583 2°41.822 255.7 14.2 251 12.3
2004-03-18 08:02:00 51°10.578 2°41.798 255.1 14.2 251 12.4
2004-03-18 08:02:05 51°10.572 2°41.768 255.2 14.2 251 12.4
2004-03-18 08:02:09 51°10.567 2°41.744 255.5 14.2 251 12.4
2004-03-18 08:02:15 51°10.559 2°41.709 255.6 14.2 252 12.4
2004-03-18 08:02:20 51°10.553 2°41.679 255.8 14.2 252 12.4
2004-03-18 08:02:25 51°10.547 2°41.649 256.2 14.2 252 12.4
2004-03-18 08:02:29 51°10.542 2°41.625 256.2 14.2 252 12.4
2004-03-18 08:02:35 51°10.535 2°41.59 255.7 14.2 251 12.4
2004-03-18 08:02:40 51°10.528 2°41.56 255.6 14.2 252 12.5
2004-03-18 08:02:45 51°10.521 2°41.53 255.4 14.2 251 12.4
2004-03-18 08:02:50 51°10.515 2°41.5 255.1 14.2 251 12.4
2004-03-18 08:02:55 51°10.508 2°41.471 254.9 14.1 251 12.5
2004-03-18 08:02:59 51°10.503 2°41.447 254.8 14.2 251 12.4
2004-03-18 08:03:05 51°10.496 2°41.412 255 14.2 251 12.4
2004-03-18 08:03:09 51°10.491 2°41.388 255.4 14.2 252 12.5
2004-03-18 08:03:15 51°10.483 2°41.352 255.8 14.2 251 12.5
2004-03-18 08:03:20 51°10.477 2°41.322 255.7 14.2 252 12.5
2004-03-18 08:03:25 51°10.471 2°41.293 255.7 14.2 251 12.4
2004-03-18 08:03:31 51°10.463 2°41.257 255.1 14.1 251 12.5
2004-03-18 08:03:35 51°10.458 2°41.234 254.7 14.2 251 12.5
2004-03-18 08:03:40 51°10.451 2°41.204 255.3 14.1 251 12.5
2004-03-18 08:03:45 51°10.445 2°41.175 255.5 14.1 251 12.5
2004-03-18 08:03:51 51°10.437 2°41.139 255.6 14.1 251 12.5
2004-03-18 08:03:55 51°10.432 2°41.116 255.6 14.1 251 12.6
2004-03-18 08:04:00 51°10.426 2°41.086 255.3 14.1 251 12.6
2004-03-18 08:04:05 51°10.419 2°41.057 254.9 14.1 250 12.6
2004-03-18 08:04:11 51°10.411 2°41.022 254.7 14.1 250 12.5
2004-03-18 08:04:15 51°10.406 2°40.998 254.7 14.1 251 12.6
2004-03-18 08:04:20 51°10.4 2°40.969 255.1 14.1 252 12.6
2004-03-18 08:04:25 51°10.394 2°40.939 255.4 14.1 252 12.6
2004-03-18 08:04:31 51°10.386 2°40.904 255.6 14.1 252 12.6
2004-03-18 08:04:35 51°10.382 2°40.88 256 14.1 252 12.7
2004-03-18 08:04:39 51°10.377 2°40.857 255.8 14.1 251 12.7
2004-03-18 08:04:45 51°10.369 2°40.821 255.4 14 251 12.6
2004-03-18 08:04:49 51°10.364 2°40.798 255.3 14 251 12.7
2004-03-18 08:04:55 51°10.357 2°40.763 255.3 14 252 12.7
2004-03-18 08:05:00 51°10.35 2°40.733 255.6 14 251 12.7
2004-03-18 08:05:05 51°10.344 2°40.704 256 14 251 12.7
2004-03-18 08:05:09 51°10.339 2°40.68 255.5 14 251 12.7
2004-03-18 08:05:15 51°10.332 2°40.646 255.3 13.9 251 12.7
2004-03-18 08:05:20 51°10.325 2°40.617 255 13.9 250 12.7
2004-03-18 08:05:25 51°10.319 2°40.587 254.8 13.9 251 12.8
2004-03-18 08:05:29 51°10.314 2°40.564 255.1 13.9 251 12.8
2004-03-18 08:05:35 51°10.306 2°40.529 255.4 13.9 251 12.7
2004-03-18 08:05:41 51°10.299 2°40.494 255.5 13.9 252 12.8
2004-03-18 08:05:45 51°10.294 2°40.471 255.6 13.9 252 12.8
2004-03-18 08:05:51 51°10.287 2°40.436 255.4 13.9 251 12.8
2004-03-18 08:05:55 51°10.281 2°40.413 255.2 13.9 251 12.7
2004-03-18 08:06:00 51°10.275 2°40.384 255.2 13.9 251 12.9
2004-03-18 08:06:05 51°10.269 2°40.355 255.2 13.9 251 12.8
2004-03-18 08:06:11 51°10.262 2°40.321 255 13.9 251 12.9
2004-03-18 08:06:15 51°10.257 2°40.298 255 13.9 251 12.9
2004-03-18 08:06:20 51°10.251 2°40.269 255.1 13.9 251 13
2004-03-18 08:06:25 51°10.245 2°40.24 255 13.9 251 13
2004-03-18 08:06:29 51°10.24 2°40.216 255 13.9 251 13
2004-03-18 08:06:36 51°10.231 2°40.176 255 14 251 13
2004-03-18 08:06:40 51°10.226 2°40.152 255.1 13.9 251 13
2004-03-18 08:06:45 51°10.219 2°40.123 255.1 13.9 251 13.1
2004-03-18 08:06:51 51°10.212 2°40.089 255.4 13.9 252 13.1
2004-03-18 08:06:55 51°10.207 2°40.065 255.3 13.9 251 13.1
2004-03-18 08:07:01 51°10.2 2°40.031 255.3 13.9 251 13.1
2004-03-18 08:07:05 51°10.195 2°40.008 255.2 13.9 251 13.1
2004-03-18 08:07:09 51°10.19 2°39.984 255.2 13.9 251 13.2
2004-03-18 08:07:15 51°10.183 2°39.949 255.3 13.9 251 13.2
2004-03-18 08:07:21 51°10.175 2°39.914 255.3 13.9 252 13.2
2004-03-18 08:07:25 51°10.17 2°39.89 255.3 13.9 252 13.1
2004-03-18 08:07:31 51°10.163 2°39.855 255.6 13.9 252 13.2
2004-03-18 08:07:35 51°10.158 2°39.832 255.6 13.9 252 13.2
2004-03-18 08:07:41 51°10.151 2°39.797 255.6 13.9 252 13.3
2004-03-18 08:07:45 51°10.146 2°39.774 255.5 13.9 252 13.3
2004-03-18 08:07:50 51°10.14 2°39.745 255.5 13.9 252 13.3
2004-03-18 08:07:55 51°10.134 2°39.716 255.4 13.9 252 13.3
2004-03-18 08:07:59 51°10.129 2°39.692 255.4 13.9 252 13.3
2004-03-18 08:08:05 51°10.122 2°39.657 255.4 13.9 252 13.4
2004-03-18 08:08:10 51°10.116 2°39.628 255.7 13.9 252 13.4
2004-03-18 08:08:15 51°10.11 2°39.599 255.7 13.9 252 13.4
2004-03-18 08:08:19 51°10.106 2°39.576 255.6 13.9 252 13.5
2004-03-18 08:08:25 51°10.098 2°39.541 255.4 13.9 252 13.4
2004-03-18 08:08:29 51°10.093 2°39.518 255.4 13.9 251 13.5
2004-03-18 08:08:35 51°10.086 2°39.483 255.3 13.9 252 13.6
2004-03-18 08:08:41 51°10.078 2°39.448 255.2 13.9 251 13.6
2004-03-18 08:08:45 51°10.074 2°39.425 254.8 13.9 251 13.6
2004-03-18 08:08:50 51°10.067 2°39.396 254.8 13.9 251 13.7
2004-03-18 08:08:55 51°10.061 2°39.366 254.9 13.9 252 13.7
2004-03-18 08:09:00 51°10.055 2°39.337 255.1 13.9 251 13.8
2004-03-18 08:09:05 51°10.049 2°39.308 255.4 14 252 13.7
2004-03-18 08:09:11 51°10.042 2°39.273 255.6 13.9 252 13.9
2004-03-18 08:09:15 51°10.037 2°39.249 255.8 13.9 252 13.9
2004-03-18 08:09:19 51°10.032 2°39.226 255.8 13.9 252 13.9
2004-03-18 08:09:25 51°10.025 2°39.191 255.7 13.9 252 14
2004-03-18 08:09:31 51°10.018 2°39.156 255.5 13.9 251 14
2004-03-18 08:09:36 51°10.011 2°39.127 255.4 13.9 251 14.1
2004-03-18 08:09:40 51°10.007 2°39.104 254.8 13.9 251 14.1
2004-03-18 08:09:45 51°10 2°39.074 254.9 13.9 251 14.1
2004-03-18 08:09:50 51°9.994 2°39.045 254.9 13.9 252 14.2
2004-03-18 08:09:55 51°9.988 2°39.016 255 13.9 251 14.3
2004-03-18 08:10:00 51°9.982 2°38.987 255.4 13.9 252 14.2
2004-03-18 08:10:05 51°9.976 2°38.958 255.6 13.9 251 14.2
2004-03-18 08:10:10 51°9.97 2°38.928 255.4 13.9 251 14.3
2004-03-18 08:10:15 51°9.963 2°38.899 255.4 14 251 14.4
2004-03-18 08:10:19 51°9.958 2°38.875 255.2 13.9 252 14.4
2004-03-18 08:10:25 51°9.951 2°38.84 255.3 13.9 251 14.5
2004-03-18 08:10:29 51°9.946 2°38.817 255.6 13.9 252 14.5
2004-03-18 08:10:35 51°9.939 2°38.781 255.6 14 251 14.6
2004-03-18 08:10:40 51°9.933 2°38.752 255.3 14 252 14.6
2004-03-18 08:10:45 51°9.926 2°38.723 255.2 13.9 251 14.7
2004-03-18 08:10:51 51°9.919 2°38.688 255.4 14 252 14.7
2004-03-18 08:10:55 51°9.914 2°38.664 255.7 14 253 14.7
2004-03-18 08:11:00 51°9.908 2°38.635 256.1 13.9 252 14.7
2004-03-18 08:11:05 51°9.902 2°38.605 255.7 13.9 252 14.9
2004-03-18 08:11:09 51°9.897 2°38.582 255 14 251 14.8
2004-03-18 08:11:15 51°9.889 2°38.547 254.8 14 252 14.9
2004-03-18 08:11:21 51°9.882 2°38.512 254.8 14 251 14.9
2004-03-18 08:11:25 51°9.877 2°38.488 255.2 13.9 252 14.9
2004-03-18 08:11:29 51°9.872 2°38.465 255.4 14 252 15
2004-03-18 08:11:35 51°9.865 2°38.43 255.6 14 252 15.1
2004-03-18 08:11:40 51°9.859 2°38.4 255.5 14 252 15.1
2004-03-18 08:11:45 51°9.853 2°38.371 255.4 14 252 15.2
2004-03-18 08:11:50 51°9.847 2°38.342 255.4 14 252 15.2
2004-03-18 08:11:55 51°9.841 2°38.312 255.4 14 252 15.3
2004-03-18 08:11:59 51°9.836 2°38.289 255.3 14 251 15.3
2004-03-18 08:12:05 51°9.828 2°38.254 255.1 14 252 15.4
2004-03-18 08:12:09 51°9.823 2°38.23 255.1 14 252 15.4
2004-03-18 08:12:15 51°9.817 2°38.195 255.6 14 252 15.6
2004-03-18 08:12:20 51°9.811 2°38.166 256 13.9 252 15.5
2004-03-18 08:12:25 51°9.805 2°38.136 256.2 13.9 253 15.5
2004-03-18 08:12:31 51°9.798 2°38.102 256.2 14 252 15.6
2004-03-18 08:12:35 51°9.793 2°38.078 255.8 14 252 15.7
2004-03-18 08:12:41 51°9.786 2°38.043 255.4 14 251 15.8
2004-03-18 08:12:45 51°9.781 2°38.019 255.3 13.9 252 15.9
2004-03-18 08:12:51 51°9.773 2°37.984 254.9 14 251 15.8
2004-03-18 08:12:55 51°9.768 2°37.961 254.8 13.9 251 15.9
2004-03-18 08:13:00 51°9.762 2°37.932 254.8 13.9 251 15.9
2004-03-18 08:13:05 51°9.756 2°37.903 254.7 14 252 16
2004-03-18 08:13:09 51°9.751 2°37.88 255 13.9 251 16
2004-03-18 08:13:16 51°9.743 2°37.839 255.4 14 252 16
2004-03-18 08:13:19 51°9.739 2°37.821 255.7 14 252 16.1
2004-03-18 08:13:25 51°9.732 2°37.786 255.8 14 252 16.1
2004-03-18 08:13:31 51°9.725 2°37.751 255.7 13.9 252 16.2
2004-03-18 08:13:35 51°9.72 2°37.728 255.4 13.9 251 16.2
2004-03-18 08:13:40 51°9.714 2°37.699 255.1 13.9 251 16.3
2004-03-18 08:13:45 51°9.708 2°37.67 254.9 13.9 251 16.4
2004-03-18 08:13:51 51°9.7 2°37.635 254.9 13.9 251 16.6
2004-03-18 08:13:55 51°9.695 2°37.612 254.9 13.9 251 16.5
2004-03-18 08:14:00 51°9.689 2°37.583 254.9 13.9 251 16.5
2004-03-18 08:14:05 51°9.683 2°37.554 254.9 13.9 251 16.6
2004-03-18 08:14:11 51°9.676 2°37.518 254.9 14 252 16.6
2004-03-18 08:14:15 51°9.671 2°37.495 255.4 14 252 16.7
2004-03-18 08:14:20 51°9.665 2°37.466 256.2 14 253 16.8
2004-03-18 08:14:25 51°9.66 2°37.436 256.3 13.9 253 16.9
2004-03-18 08:14:30 51°9.654 2°37.407 256.3 13.9 253 16.9
2004-03-18 08:14:35 51°9.648 2°37.378 256.1 13.9 251 16.7
2004-03-18 08:14:40 51°9.641 2°37.349 255.1 13.9 251 16.7
2004-03-18 08:14:45 51°9.635 2°37.32 254.1 13.9 250 17
2004-03-18 08:14:51 51°9.627 2°37.286 253.3 13.9 249 17
2004-03-18 08:14:55 51°9.621 2°37.263 252.8 13.9 249 17.2
2004-03-18 08:15:00 51°9.614 2°37.235 252.4 13.9 249 17
2004-03-18 08:15:05 51°9.607 2°37.206 251.9 13.9 248 17
2004-03-18 08:15:09 51°9.601 2°37.184 251.8 13.9 248 17.1
2004-03-18 08:15:15 51°9.592 2°37.149 251.8 14 248 17.1
2004-03-18 08:15:20 51°9.585 2°37.121 251.8 13.9 249 17
2004-03-18 08:15:25 51°9.578 2°37.092 251.9 13.9 248 17.1
2004-03-18 08:15:29 51°9.573 2°37.069 251.9 13.9 249 16.9
2004-03-18 08:15:35 51°9.564 2°37.035 251.9 13.9 248 17
2004-03-18 08:15:40 51°9.557 2°37.007 251.8 13.9 248 16.9
2004-03-18 08:15:45 51°9.549 2°36.978 251.6 13.9 248 16.9
2004-03-18 08:15:51 51°9.54 2°36.944 251.2 13.9 248 16.9
2004-03-18 08:15:55 51°9.534 2°36.922 251.2 13.9 248 16.9
2004-03-18 08:16:00 51°9.527 2°36.893 251.2 13.9 248 16.9
2004-03-18 08:16:05 51°9.52 2°36.865 251.4 13.9 248 16.9
2004-03-18 08:16:10 51°9.513 2°36.836 251.4 13.9 248 16.8
2004-03-18 08:16:15 51°9.506 2°36.808 251.8 13.9 248 16.8
2004-03-18 08:16:20 51°9.499 2°36.779 252.2 13.9 249 16.8
2004-03-18 08:16:25 51°9.492 2°36.751 252.5 13.9 249 16.8
2004-03-18 08:16:31 51°9.484 2°36.717 252.5 13.9 249 16.8
2004-03-18 08:16:35 51°9.478 2°36.694 252.4 13.9 248 16.8
2004-03-18 08:16:39 51°9.472 2°36.671 251.9 13.9 248 16.7
2004-03-18 08:16:45 51°9.464 2°36.637 251.8 13.9 248 16.7
2004-03-18 08:16:49 51°9.458 2°36.614 251.7 13.9 248 16.7
2004-03-18 08:16:56 51°9.448 2°36.575 251.5 13.9 248 16.7
2004-03-18 08:16:59 51°9.443 2°36.557 251.8 13.9 248 16.8
2004-03-18 08:17:05 51°9.435 2°36.523 252.1 13.9 249 16.7
2004-03-18 08:17:10 51°9.428 2°36.495 252.5 13.9 249 16.8
2004-03-18 08:17:15 51°9.421 2°36.466 252.5 13.9 249 16.8
2004-03-18 08:17:19 51°9.416 2°36.444 252.4 13.8 249 16.9
2004-03-18 08:17:25 51°9.407 2°36.41 252.1 13.9 248 17
2004-03-18 08:17:31 51°9.399 2°36.375 252 13.9 248 16.8
2004-03-18 08:17:35 51°9.393 2°36.353 251.8 13.9 248 17
2004-03-18 08:17:40 51°9.386 2°36.324 251.9 13.8 249 16.8
2004-03-18 08:17:45 51°9.379 2°36.296 252 13.8 248 17.2
2004-03-18 08:17:50 51°9.372 2°36.267 252 13.9 249 17.1
2004-03-18 08:17:55 51°9.365 2°36.239 252.2 13.8 249 17
2004-03-18 08:18:00 51°9.358 2°36.21 252.5 13.8 249 17
2004-03-18 08:18:05 51°9.351 2°36.182 252.5 13.8 249 17.1
2004-03-18 08:18:09 51°9.346 2°36.159 253.1 13.9 250 17.4
2004-03-18 08:18:15 51°9.338 2°36.124 253.2 13.8 249 17.4
2004-03-18 08:18:20 51°9.332 2°36.096 253 13.8 249 17
2004-03-18 08:18:25 51°9.325 2°36.068 252.6 13.8 249 17.5
2004-03-18 08:18:30 51°9.318 2°36.039 252.6 13.8 249 17.5
2004-03-18 08:18:35 51°9.311 2°36.01 252.6 13.8 250 17.3
2004-03-18 08:18:41 51°9.303 2°35.976 252.7 13.8 250 17.3
2004-03-18 08:18:45 51°9.298 2°35.953 253.1 13.8 250 17.1
2004-03-18 08:18:51 51°9.29 2°35.919 253 13.8 250 17
2004-03-18 08:18:55 51°9.285 2°35.896 253.1 13.8 250 17.5
2004-03-18 08:19:01 51°9.277 2°35.862 253.1 13.8 250 17.3
2004-03-18 08:19:05 51°9.272 2°35.84 253.3 13.7 250 17.5
2004-03-18 08:19:10 51°9.265 2°35.811 253 13.7 250 17.4
2004-03-18 08:19:15 51°9.259 2°35.783 252.6 13.7 249 17.5
2004-03-18 08:19:21 51°9.25 2°35.749 252.2 13.7 249 17.7
2004-03-18 08:19:25 51°9.245 2°35.726 252.3 13.7 249 17.3
2004-03-18 08:19:29 51°9.24 2°35.704 252.5 13.7 250 17.8
2004-03-18 08:19:36 51°9.23 2°35.664 252.6 13.7 249 17.4
2004-03-18 08:19:39 51°9.226 2°35.647 252.5 13.7 249 17.7
2004-03-18 08:19:45 51°9.218 2°35.613 252.4 13.7 249 17.5
2004-03-18 08:19:50 51°9.211 2°35.585 252.3 13.7 249 17.7
2004-03-18 08:19:55 51°9.204 2°35.556 251.9 13.7 249 17.7
2004-03-18 08:20:00 51°9.198 2°35.528 252 13.7 249 17.8
2004-03-18 08:20:05 51°9.191 2°35.5 252.1 13.7 249 17.8
2004-03-18 08:20:10 51°9.184 2°35.472 252.5 13.7 250 17.6
2004-03-18 08:20:15 51°9.178 2°35.443 252.5 13.8 250 17.5
2004-03-18 08:20:20 51°9.171 2°35.415 252.8 13.7 250 17.7
2004-03-18 08:20:25 51°9.165 2°35.387 252.7 13.7 249 17.5
2004-03-18 08:20:31 51°9.156 2°35.353 252.1 13.7 249 17.7
2004-03-18 08:20:35 51°9.151 2°35.33 252.3 13.7 249 17.7
2004-03-18 08:20:41 51°9.143 2°35.296 252.1 13.7 249 17.8
2004-03-18 08:20:45 51°9.137 2°35.274 252.1 13.7 249 17.8
2004-03-18 08:20:51 51°9.129 2°35.24 251.8 13.8 249 17.8
2004-03-18 08:20:55 51°9.123 2°35.217 251.8 13.7 249 17.9
2004-03-18 08:21:00 51°9.116 2°35.189 251.7 13.7 248 17.4
2004-03-18 08:21:05 51°9.11 2°35.161 251.7 13.7 249 17.8
2004-03-18 08:21:09 51°9.104 2°35.138 251.8 13.7 249 17.9
2004-03-18 08:21:15 51°9.096 2°35.104 251.8 13.7 249 17.9
2004-03-18 08:21:21 51°9.088 2°35.07 251.9 13.7 249 17.5
2004-03-18 08:21:25 51°9.082 2°35.047 252.1 13.7 250 17.7
2004-03-18 08:21:29 51°9.077 2°35.025 252.5 13.7 250 18
2004-03-18 08:21:35 51°9.069 2°34.99 253 13.7 250 18.2
2004-03-18 08:21:41 51°9.061 2°34.956 253 13.8 250 18
2004-03-18 08:21:45 51°9.056 2°34.934 253 13.7 250 18.2
2004-03-18 08:21:51 51°9.048 2°34.899 252.7 13.8 250 18.2
2004-03-18 08:21:55 51°9.043 2°34.877 252.5 13.8 249 18
2004-03-18 08:22:00 51°9.036 2°34.848 252.4 13.7 250 17.9
2004-03-18 08:22:05 51°9.03 2°34.82 252.5 13.7 249 17.7
2004-03-18 08:22:09 51°9.024 2°34.797 252.7 13.8 250 17.1
2004-03-18 08:22:15 51°9.016 2°34.763 252.8 13.7 249 17.5
2004-03-18 08:22:20 51°9.01 2°34.735 252.4 13.8 249 17.6
2004-03-18 08:22:25 51°9.003 2°34.707 252.2 13.8 249 17.1
2004-03-18 08:22:31 51°8.995 2°34.673 251.9 13.7 249 17.3
2004-03-18 08:22:35 51°8.989 2°34.65 252.1 13.4 249 17.8
2004-03-18 08:22:39 51°8.985 2°34.629 252.5 13.1 249 17.1
2004-03-18 08:22:45 51°8.978 2°34.601 252.7 11.9 250 17.3
2004-03-18 08:22:49 51°8.973 2°34.582 252.5 11.3 249 17.3
2004-03-18 08:22:56 51°8.966 2°34.553 252 10.2 248 17.1
2004-03-18 08:22:59 51°8.963 2°34.541 251.1 9.8 248 17.5
2004-03-18 08:23:05 51°8.957 2°34.519 249.6 9.4 247 17.1
2004-03-18 08:23:11 51°8.951 2°34.497 249.1 9 246 17.3
2004-03-18 08:23:15 51°8.947 2°34.484 249.2 8.4 247 17.8
2004-03-18 08:23:20 51°8.943 2°34.467 250.3 8.3 248 17.8
2004-03-18 08:23:25 51°8.94 2°34.451 251.9 7.9 250 17.6
2004-03-18 08:23:29 51°8.937 2°34.438 254.2 7.6 252 17.4
2004-03-18 08:23:36 51°8.934 2°34.417 256.9 7.2 256 16.9
2004-03-18 08:23:41 51°8.932 2°34.401 259.7 7 258 17.2
2004-03-18 08:23:45 51°8.931 2°34.39 262.8 6.9 261 17.5
2004-03-18 08:23:49 51°8.931 2°34.378 266.1 6.7 263 17
2004-03-18 08:23:55 51°8.93 2°34.361 269.2 6.4 268 17.5
2004-03-18 08:24:00 51°8.931 2°34.347 272.3 6.2 270 17
2004-03-18 08:24:05 51°8.931 2°34.335 275.3 6 272 17.6
2004-03-18 08:24:09 51°8.931 2°34.324 277.1 5.7 274 17.3
2004-03-18 08:24:15 51°8.932 2°34.31 278.5 5.4 277 17.1
2004-03-18 08:24:20 51°8.933 2°34.298 280.4 5.2 278 17.4
2004-03-18 08:24:25 51°8.935 2°34.288 282.8 5.2 279 17.1
2004-03-18 08:24:30 51°8.936 2°34.278 285.4 4.7 281 17.5
2004-03-18 08:24:35 51°8.938 2°34.269 287.7 4.3 285 17.3
2004-03-18 08:24:40 51°8.939 2°34.26 288.2 3.9 282 17.2
2004-03-18 08:24:45 51°8.939 2°34.253 286.5 3.9 282 17.7
2004-03-18 08:24:51 51°8.94 2°34.246 283.4 2.7 279 17.3
2004-03-18 08:24:55 51°8.94 2°34.243 278.2 2 276 17.4
2004-03-18 08:25:00 51°8.94 2°34.239 273.6 1.6 273 17.1
2004-03-18 08:25:05 51°8.941 2°34.237 270.7 1.2 280 17
2004-03-18 08:25:10 51°8.941 2°34.237 268.7 0.5 282 17.1
2004-03-18 08:25:15 51°8.941 2°34.237 267.6 0.2 346 17.1
2004-03-18 08:25:20 51°8.942 2°34.237 266.4 0.2 355 17.1
2004-03-18 08:25:25 51°8.942 2°34.237 265.3 0.2 348 17.1
2004-03-18 08:25:31 51°8.942 2°34.237 263.7 0.2 349 17.1
2004-03-18 08:25:35 51°8.943 2°34.237 261.9 0.2 355 17.1
2004-03-18 08:25:40 51°8.943 2°34.237 260.1 0.2 353 17
2004-03-18 08:25:45 51°8.943 2°34.237 258.2 0.2 347 17
2004-03-18 08:25:51 51°8.943 2°34.237 256.5 0.2 351 17
2004-03-18 08:25:56 51°8.944 2°34.237 254.8 0.2 349 17.1
2004-03-18 08:26:00 51°8.944 2°34.237 253.4 0.2 355 17
2004-03-18 08:26:05 51°8.944 2°34.237 252 0.2 354 17.1
2004-03-18 08:26:09 51°8.944 2°34.237 250.8 0.2 355 17.1
2004-03-18 08:26:16 51°8.945 2°34.237 249.6 0.2 351 17.1
2004-03-18 08:26:20 51°8.945 2°34.237 248.5 0.2 349 17.1
2004-03-18 08:26:25 51°8.945 2°34.237 247.4 0.1 356 17.1
2004-03-18 08:26:29 51°8.945 2°34.236 246.2 0.2 356 17.1
2004-03-18 08:26:35 51°8.946 2°34.236 245.6 0.2 354 17.1
2004-03-18 08:26:40 51°8.946 2°34.237 244.6 0.2 358 17
2004-03-18 08:26:45 51°8.946 2°34.237 243.8 0.2 354 17
2004-03-18 08:26:51 51°8.946 2°34.236 243 0.2 347 17
2004-03-18 08:26:55 51°8.946 2°34.236 242.2 0.2 354 17.1
2004-03-18 08:26:59 51°8.946 2°34.236 241.4 0.1 8 17.1
2004-03-18 08:27:05 51°8.947 2°34.236 240.7 0.1 10 17
2004-03-18 08:27:09 51°8.947 2°34.236 239.8 0.2 344 17.1
2004-03-18 08:27:15 51°8.947 2°34.236 239.1 0.1 357 17.1
2004-03-18 08:27:20 51°8.947 2°34.237 238.1 0.1 355 17.1
2004-03-18 08:27:25 51°8.947 2°34.236 237.4 0.1   17.1
2004-03-18 08:27:29 51°8.947 2°34.236 236.7 0.1 353 17.2
2004-03-18 08:27:36 51°8.947 2°34.236 235.9 0.1 3 17.1
2004-03-18 08:27:39 51°8.947 2°34.236 235 0.1 358 17.2
2004-03-18 08:27:45 51°8.948 2°34.236 234 0.1 11 17.2
2004-03-18 08:27:51 51°8.948 2°34.236 233.3 0.1 357 17.3
2004-03-18 08:27:55 51°8.948 2°34.236 232.5 0.1 19 17.3
2004-03-18 08:27:59 51°8.948 2°34.236 231.7 0.1 20 17.2
2004-03-18 08:28:05 51°8.948 2°34.236 230.9 0.1 353 17.2
2004-03-18 08:28:09 51°8.948 2°34.236 229.9 0.1 17 17.2
2004-03-18 08:28:15 51°8.949 2°34.236 229.1 0.1 11 17.2
2004-03-18 08:28:20 51°8.949 2°34.236 228.5 0.1 25 17.2
2004-03-18 08:28:25 51°8.949 2°34.236 227.9 0.1 8 17.1
2004-03-18 08:28:31 51°8.949 2°34.236 227.1 0.1 32 17.1
2004-03-18 08:28:35 51°8.949 2°34.236 226.4 0.1 355 17.1
2004-03-18 08:28:39 51°8.949 2°34.236 225.6 0.1 21 17.1
2004-03-18 08:28:45 51°8.949 2°34.236 225 0.1 341 17.1
2004-03-18 08:28:51 51°8.949 2°34.236 224.4   25 17.1
2004-03-18 08:28:55 51°8.949 2°34.236 223.7 0.1 353 17.1
2004-03-18 08:29:00 51°8.95 2°34.236 223 0.1 28 17.1
2004-03-18 08:29:05 51°8.95 2°34.236 222.5 0.1 339 17.1
2004-03-18 08:29:09 51°8.95 2°34.236 221.8 0.1 57 17.1
2004-03-18 08:29:16 51°8.95 2°34.236 221.3 0.1 357 17.1
2004-03-18 08:29:19 51°8.95 2°34.236 220.6 0.1 49 17.1
2004-03-18 08:29:25 51°8.95 2°34.236 220.1 0.1 343 17.2
2004-03-18 08:29:29 51°8.95 2°34.236 219.5   27 17.2
2004-03-18 08:29:35 51°8.95 2°34.236 219 0.1 2 17.2
2004-03-18 08:29:40 51°8.95 2°34.237 218.5 0.1 39 17.1
2004-03-18 08:29:45 51°8.951 2°34.237 218   29 17.2
2004-03-18 08:29:51 51°8.951 2°34.237 217.4 0.1 59 17.2
2004-03-18 08:29:55 51°8.951 2°34.237 217 0.1 348 17.2
2004-03-18 08:30:00 51°8.951 2°34.237 216.6   18 17.2
2004-03-18 08:30:05 51°8.951 2°34.237 216.2 0.1 353 17.2
2004-03-18 08:30:09 51°8.951 2°34.237 215.8   42 17.2
2004-03-18 08:30:15 51°8.951 2°34.237 215.4   35 17.3
2004-03-18 08:30:20 51°8.951 2°34.237 215.1   36 17.3
2004-03-18 08:30:25 51°8.951 2°34.237 214.7   39 17.3
2004-03-18 08:30:31 51°8.951 2°34.237 214.3   48 17.3
2004-03-18 08:30:35 51°8.951 2°34.237 214.1   67 17.3
2004-03-18 08:30:41 51°8.951 2°34.237 213.8   358 17.3
2004-03-18 08:30:45 51°8.951 2°34.237 213.4   47 17.3
2004-03-18 08:30:50 51°8.951 2°34.237 213.2   42 17.3
2004-03-18 08:30:55 51°8.951 2°34.237 212.9 0.1 85 17.3
2004-03-18 08:31:00 51°8.951 2°34.237 212.6   316 17.4
2004-03-18 08:31:05 51°8.951 2°34.237 212.4 0.1 81 17.3
2004-03-18 08:31:11 51°8.951 2°34.237 212.1   340 17.4
2004-03-18 08:31:15 51°8.951 2°34.237 211.9   75 17.4
2004-03-18 08:31:20 51°8.951 2°34.237 211.7   349 17.4
2004-03-18 08:31:25 51°8.951 2°34.237 211.4 0.1 93 17.4
2004-03-18 08:31:29 51°8.951 2°34.237 211.2     17.5
2004-03-18 08:31:35 51°8.951 2°34.237 210.8 0.1 100 17.4
2004-03-18 08:31:41 51°8.951 2°34.237 210.5   349 17.5
2004-03-18 08:31:45 51°8.951 2°34.237 210.3 0.1 77 17.6
2004-03-18 08:31:51 51°8.951 2°34.237 209.9   45 17.6
2004-03-18 08:31:55 51°8.951 2°34.237 209.7   43 17.6
2004-03-18 08:32:00 51°8.951 2°34.237 209.3   95 17.6
2004-03-18 08:32:05 51°8.951 2°34.237 209   82 17.5
2004-03-18 08:32:09 51°8.951 2°34.237 208.7 0.1 86 17.5
2004-03-18 08:32:16 51°8.951 2°34.237 208.5 0.1 68 17.5
2004-03-18 08:32:21 51°8.951 2°34.238 208.3   100 17.5
2004-03-18 08:32:25 51°8.951 2°34.238 208   80 17.6
2004-03-18 08:32:30 51°8.951 2°34.238 207.6   63 17.6
2004-03-18 08:32:35 51°8.951 2°34.238 207.5 0.1 71 17.5
2004-03-18 08:32:40 51°8.951 2°34.238 207.3   41 17.6
2004-03-18 08:32:45 51°8.951 2°34.238 207.1   74 17.5
2004-03-18 08:32:49 51°8.951 2°34.238 206.8   52 17.6
2004-03-18 08:32:55 51°8.951 2°34.238 206.7 0.1 99 17.5
2004-03-18 08:33:01 51°8.951 2°34.238 206.5   90 17.6
2004-03-18 08:33:05 51°8.951 2°34.238 206.3 0.1 76 17.5
2004-03-18 08:33:10 51°8.951 2°34.239 206.1   69 17.5
2004-03-18 08:33:15 51°8.951 2°34.239 206 0.1 59 17.5
2004-03-18 08:33:19 51°8.951 2°34.239 205.8 0.1 76 17.5
2004-03-18 08:33:24 51°8.951 2°34.239 205.5 0.1 78 17.5
2004-03-18 08:33:31 51°8.951 2°34.239 205.4 0.1 77 17.5
2004-03-18 08:33:35 51°8.951 2°34.239 205.2 0.1 82 17.5
2004-03-18 08:33:40 51°8.951 2°34.239 205 0.1 77 17.5
2004-03-18 08:33:45 51°8.951 2°34.239 204.8   70 17.5
2004-03-18 08:33:49 51°8.951 2°34.239 204.6 0.1 56 17.5
2004-03-18 08:33:55 51°8.951 2°34.24 204.4 0.1 82 17.5
2004-03-18 08:33:59 51°8.951 2°34.24 204.1 0.1 67 17.5
2004-03-18 08:34:05 51°8.951 2°34.24 203.8 0.1 90 17.6
2004-03-18 08:34:09 51°8.952 2°34.24 203.6 0.1 79 17.5
2004-03-18 08:34:15 51°8.952 2°34.24 203.4 0.1 86 17.6
2004-03-18 08:34:20 51°8.952 2°34.24 203.2 0.1 58 17.6
2004-03-18 08:34:25 51°8.952 2°34.241 203 0.1 77 17.7
2004-03-18 08:34:29 51°8.952 2°34.241 202.7 0.1 70 17.6
2004-03-18 08:34:36 51°8.952 2°34.241 202.5 0.1 78 17.6
2004-03-18 08:34:41 51°8.952 2°34.241 202.4 0.1 78 17.6
2004-03-18 08:34:45 51°8.952 2°34.241 202.2 0.1 86 17.6
2004-03-18 08:34:50 51°8.952 2°34.241 201.9 0.1 69 17.6
2004-03-18 08:34:55 51°8.952 2°34.241 201.7 0.1 65 17.5
2004-03-18 08:35:00 51°8.952 2°34.241 201.6 0.1 53 17.6
2004-03-18 08:35:05 51°8.952 2°34.241 201.4 0.1 63 17.5
2004-03-18 08:35:09 51°8.952 2°34.241 201.2 0.1 71 17.5
2004-03-18 08:35:16 51°8.952 2°34.242 201.1 0.1 71 17.5
2004-03-18 08:35:21 51°8.953 2°34.243 201 0.1 60 17.5
2004-03-18 08:35:25 51°8.953 2°34.243 200.9 0.1 66 17.4
2004-03-18 08:35:31 51°8.953 2°34.244 200.8 0.1 64 17.4
2004-03-18 08:35:35 51°8.953 2°34.244 200.6 0.1 57 17.4
2004-03-18 08:35:40 51°8.953 2°34.244 200.5 0.1 63 17.4
2004-03-18 08:35:45 51°8.953 2°34.244 200.4 0.1 73 17.3
2004-03-18 08:35:51 51°8.953 2°34.243 200.3 0.1 61 17.3
2004-03-18 08:35:55 51°8.953 2°34.243 200.3 0.1 50 17.3